Time;durP1;ratioP1;P1;durP2;ratioP2;P2;SDS_P1;SDS_P2;PMS_P1;PMS_P2;Temp;Humidity;BMP_temperature;BMP_pressure;BME280_temperature;BME280_humidity;BME280_pressure;Samples;Min_cycle;Max_cycle;Signal;HPM_P1;HPM_P2
2020/12/14 00:02:08;;;;;;;130.25;85.20;;;7.80;83.40;;;;;;5092449;28;20043;-80
2020/12/14 00:05:13;;;;;;;128.82;85.00;;;7.80;82.40;;;;;;5092063;28;20055;-80
2020/12/14 00:08:17;;;;;;;127.70;85.18;;;7.80;81.70;;;;;;5092152;28;20043;-80
2020/12/14 00:11:21;;;;;;;126.28;86.03;;;7.60;82.30;;;;;;5091298;28;20059;-79
2020/12/14 00:14:25;;;;;;;126.78;81.15;;;7.50;83.50;;;;;;5092018;28;20055;-80
2020/12/14 00:17:29;;;;;;;133.05;82.65;;;7.40;83.90;;;;;;5092142;28;20047;-80
2020/12/14 00:20:33;;;;;;;132.50;83.25;;;7.30;83.50;;;;;;5091721;28;20450;-80
2020/12/14 00:23:37;;;;;;;125.78;76.70;;;7.30;84.20;;;;;;5091971;28;20043;-80
2020/12/14 00:26:42;;;;;;;126.82;76.97;;;7.30;84.30;;;;;;5091970;28;20403;-80
2020/12/14 00:29:46;;;;;;;126.78;81.72;;;7.30;83.90;;;;;;5092123;28;20071;-80
2020/12/14 00:32:49;;;;;;;129.27;81.60;;;7.30;84.70;;;;;;5091885;28;20098;-80
2020/12/14 00:35:53;;;;;;;127.00;81.25;;;7.40;85.10;;;;;;5090681;28;20071;-81
2020/12/14 00:38:57;;;;;;;122.15;80.85;;;7.50;85.20;;;;;;5091697;28;20047;-80
2020/12/14 00:42:02;;;;;;;137.05;87.00;;;7.60;85.40;;;;;;5091603;28;20193;-79
2020/12/14 00:45:06;;;;;;;134.70;86.50;;;7.60;85.60;;;;;;5091397;28;20055;-80
2020/12/14 00:48:10;;;;;;;130.63;84.28;;;7.70;85.80;;;;;;5091738;28;20058;-80
2020/12/14 00:51:14;;;;;;;130.20;84.90;;;7.70;85.30;;;;;;5091399;28;20055;-80
2020/12/14 00:54:18;;;;;;;125.53;80.63;;;7.70;85.10;;;;;;5091366;28;20047;-80
2020/12/14 00:57:22;;;;;;;130.10;83.20;;;7.70;85.80;;;;;;5091528;28;20054;-80
2020/12/14 01:00:26;;;;;;;121.88;79.88;;;7.70;85.10;;;;;;5091186;28;20035;-80
2020/12/14 01:03:30;;;;;;;121.63;77.80;;;7.70;84.60;;;;;;5091294;28;20047;-80
2020/12/14 01:06:34;;;;;;;121.45;78.82;;;7.60;83.40;;;;;;5091274;28;20050;-80
2020/12/14 01:09:38;;;;;;;113.45;76.18;;;7.50;84.20;;;;;;5091300;28;20054;-79
2020/12/14 01:12:42;;;;;;;105.82;68.45;;;7.40;85.40;;;;;;5091319;28;20050;-80
2020/12/14 01:15:46;;;;;;;103.03;62.05;;;7.50;83.90;;;;;;5090714;28;20047;-80
2020/12/14 01:18:54;;;;;;;95.10;59.58;;;7.50;83.00;;;;;;5091196;28;20392;-80
2020/12/14 01:21:58;;;;;;;93.45;59.72;;;7.40;84.10;;;;;;5091075;28;20055;-80
2020/12/14 01:25:02;;;;;;;96.95;58.65;;;7.30;84.50;;;;;;5091115;28;20071;-80
2020/12/14 01:28:06;;;;;;;93.90;55.28;;;7.20;85.30;;;;;;5091268;28;20067;-80
2020/12/14 01:31:10;;;;;;;80.90;53.00;;;7.20;85.30;;;;;;5091029;28;20510;-80
2020/12/14 01:34:14;;;;;;;81.47;50.05;;;7.20;85.20;;;;;;5090223;28;20051;-80
2020/12/14 01:37:18;;;;;;;68.82;44.42;;;7.20;85.90;;;;;;5090963;28;20055;-79
2020/12/14 01:40:23;;;;;;;72.88;45.33;;;7.10;86.60;;;;;;5090998;28;20058;-79
2020/12/14 01:43:27;;;;;;;73.93;44.65;;;7.20;87.10;;;;;;5093593;28;20036;-80
2020/12/14 01:46:31;;;;;;;70.95;43.90;;;7.30;87.30;;;;;;5095089;28;20035;-79
2020/12/14 01:49:36;;;;;;;65.40;40.88;;;7.40;86.90;;;;;;5094625;28;20055;-80
2020/12/14 01:52:46;;;;;;;66.05;41.53;;;7.40;86.50;;;;;;5094839;28;20055;-80
2020/12/14 01:55:55;;;;;;;61.85;40.30;;;7.50;86.40;;;;;;5094570;28;20055;-80
2020/12/14 01:58:59;;;;;;;62.08;39.05;;;7.40;85.70;;;;;;5094554;28;20047;-79
2020/12/14 02:02:03;;;;;;;61.78;41.15;;;7.40;85.80;;;;;;5094595;28;20502;-80
2020/12/14 02:05:08;;;;;;;52.60;33.92;;;7.40;85.90;;;;;;5094656;28;20043;-79
2020/12/14 02:08:12;;;;;;;51.65;33.47;;;7.40;86.20;;;;;;5094699;28;20051;-80
2020/12/14 02:11:16;;;;;;;46.05;30.70;;;7.50;85.70;;;;;;5094508;28;20058;-80
2020/12/14 02:14:20;;;;;;;47.25;30.67;;;7.60;83.90;;;;;;5094390;28;20051;-79
2020/12/14 02:17:26;;;;;;;41.30;29.02;;;7.70;84.00;;;;;;5094459;28;20059;-80
2020/12/14 02:20:30;;;;;;;43.92;29.33;;;7.80;84.10;;;;;;5094244;28;20047;-79
2020/12/14 02:23:34;;;;;;;47.00;29.38;;;7.90;82.50;;;;;;5094428;28;20047;-79
2020/12/14 02:26:41;;;;;;;45.97;28.58;;;7.70;82.30;;;;;;5093472;28;20066;-79
2020/12/14 02:29:47;;;;;;;41.65;27.73;;;7.60;83.70;;;;;;5093842;28;20047;-79
2020/12/14 02:32:51;;;;;;;40.75;26.20;;;7.60;84.00;;;;;;5094102;28;20047;-80
2020/12/14 02:35:55;;;;;;;45.63;26.90;;;7.50;84.50;;;;;;5093696;28;20157;-79
2020/12/14 02:39:00;;;;;;;38.88;26.92;;;7.50;84.50;;;;;;5093790;28;20039;-80
2020/12/14 02:42:15;;;;;;;38.97;25.92;;;7.40;84.10;;;;;;5093944;28;20502;-79
2020/12/14 02:45:19;;;;;;;40.97;26.27;;;7.40;82.90;;;;;;5093887;28;20058;-80
2020/12/14 02:48:23;;;;;;;39.90;26.40;;;7.40;83.30;;;;;;5093614;28;20050;-80
2020/12/14 02:51:27;;;;;;;41.38;25.77;;;7.30;84.10;;;;;;5093702;28;20055;-79
2020/12/14 02:54:32;;;;;;;38.78;24.35;;;7.30;84.40;;;;;;5092350;28;20082;-80
2020/12/14 02:57:35;;;;;;;40.13;23.88;;;7.20;85.40;;;;;;5093681;28;20039;-79
2020/12/14 03:00:39;;;;;;;43.03;23.60;;;7.20;84.40;;;;;;5093631;28;20047;-80
2020/12/14 03:03:44;;;;;;;36.53;23.85;;;7.20;84.50;;;;;;5093619;28;20043;-79
2020/12/14 03:06:48;;;;;;;34.83;22.38;;;7.30;84.10;;;;;;5093563;28;20043;-79
2020/12/14 03:09:52;;;;;;;38.13;22.58;;;7.20;84.10;;;;;;5093464;28;20400;-79
2020/12/14 03:12:56;;;;;;;35.33;23.42;;;7.20;84.40;;;;;;5093507;28;20039;-80
2020/12/14 03:16:00;;;;;;;32.08;22.38;;;7.20;84.70;;;;;;5092936;28;20063;-79
2020/12/14 03:19:04;;;;;;;33.38;23.00;;;7.20;83.90;;;;;;5093355;28;20051;-80
2020/12/14 03:22:08;;;;;;;32.83;21.10;;;7.10;84.10;;;;;;5093035;28;20063;-79
2020/12/14 03:25:12;;;;;;;27.45;18.35;;;7.10;84.50;;;;;;5093212;28;20043;-80
2020/12/14 03:28:16;;;;;;;26.55;16.65;;;7.10;84.70;;;;;;5092914;28;20043;-80
2020/12/14 03:31:19;;;;;;;24.50;16.05;;;7.40;84.50;;;;;;5093236;28;20361;-80
2020/12/14 03:34:23;;;;;;;24.83;15.07;;;7.60;84.00;;;;;;5093215;28;20055;-80
2020/12/14 03:37:27;;;;;;;23.95;15.65;;;7.70;83.10;;;;;;5093103;28;20051;-80
2020/12/14 03:40:32;;;;;;;24.33;16.17;;;7.80;82.80;;;;;;5092447;28;20035;-79
2020/12/14 03:43:36;;;;;;;23.25;15.95;;;7.80;82.60;;;;;;5092509;28;20042;-79
2020/12/14 03:46:40;;;;;;;24.65;15.30;;;7.80;82.60;;;;;;5092695;28;20387;-80
2020/12/14 03:49:43;;;;;;;27.77;17.10;;;7.70;83.00;;;;;;5092331;28;20071;-79
2020/12/14 03:52:47;;;;;;;25.70;16.63;;;7.70;82.80;;;;;;5092611;28;20039;-79
2020/12/14 03:55:51;;;;;;;24.90;15.55;;;7.60;82.80;;;;;;5092326;28;20502;-80
2020/12/14 03:58:55;;;;;;;25.50;16.08;;;7.50;83.30;;;;;;5092728;28;20514;-79
2020/12/14 04:01:59;;;;;;;26.58;16.73;;;7.40;83.60;;;;;;5091689;28;20047;-79
2020/12/14 04:05:03;;;;;;;24.48;16.20;;;7.50;83.50;;;;;;5091934;28;20444;-80
2020/12/14 04:08:06;;;;;;;26.02;16.02;;;7.60;81.50;;;;;;5092207;28;20067;-80
2020/12/14 04:11:10;;;;;;;23.73;15.90;;;7.60;80.90;;;;;;5092131;28;20055;-79
2020/12/14 04:14:15;;;;;;;27.50;16.27;;;7.50;80.70;;;;;;5091798;28;20040;-79
2020/12/14 04:17:19;;;;;;;23.13;16.08;;;7.30;81.90;;;;;;5092108;28;20534;-79
2020/12/14 04:20:23;;;;;;;27.08;15.88;;;7.10;83.10;;;;;;5091975;28;20522;-79
2020/12/14 04:23:27;;;;;;;23.00;15.23;;;7.00;83.80;;;;;;5091811;28;20047;-79
2020/12/14 04:26:31;;;;;;;27.13;14.80;;;7.00;84.70;;;;;;5091958;28;20036;-79
2020/12/14 04:29:35;;;;;;;23.23;14.82;;;7.00;84.90;;;;;;5091593;28;20120;-80
2020/12/14 04:32:39;;;;;;;24.08;15.48;;;7.10;84.80;;;;;;5091795;28;20046;-80
2020/12/14 04:35:43;;;;;;;26.13;15.55;;;7.00;84.70;;;;;;5091640;28;20126;-80
2020/12/14 04:38:47;;;;;;;21.75;14.80;;;7.00;84.70;;;;;;5091464;28;20031;-79
2020/12/14 04:41:56;;;;;;;21.75;14.60;;;7.00;85.00;;;;;;5091473;28;20043;-79
2020/12/14 04:45:01;;;;;;;25.60;15.35;;;7.00;85.10;;;;;;5091349;28;20522;-79
2020/12/14 04:48:07;;;;;;;20.38;14.40;;;7.10;85.80;;;;;;5091591;28;20047;-79
2020/12/14 04:51:11;;;;;;;23.88;14.75;;;7.00;84.90;;;;;;5090962;28;20047;-80
2020/12/14 04:54:16;;;;;;;24.50;15.38;;;7.10;85.10;;;;;;5091509;28;20529;-80
2020/12/14 04:57:22;;;;;;;19.65;12.90;;;7.00;84.40;;;;;;5090281;28;20048;-80
2020/12/14 05:00:26;;;;;;;25.17;14.50;;;7.10;83.50;;;;;;5091327;28;20047;-79
2020/12/14 05:03:31;;;;;;;21.50;12.75;;;7.00;83.60;;;;;;5091009;28;20042;-80
2020/12/14 05:06:48;;;;;;;20.88;13.25;;;7.00;84.70;;;;;;5091321;28;20403;-79
2020/12/14 05:10:00;;;;;;;21.20;13.32;;;7.00;85.00;;;;;;5090106;28;20039;-80
2020/12/14 05:13:09;;;;;;;19.40;13.63;;;7.10;84.80;;;;;;5091265;28;20047;-79
2020/12/14 05:16:13;;;;;;;21.50;12.18;;;7.10;83.60;;;;;;5090848;28;20514;-79
2020/12/14 05:19:28;;;;;;;19.95;12.90;;;7.20;82.80;;;;;;5091145;28;20037;-79
2020/12/14 05:22:32;;;;;;;22.77;13.13;;;7.10;82.50;;;;;;5091163;28;20506;-79
2020/12/14 05:25:37;;;;;;;19.88;12.65;;;6.90;83.30;;;;;;5090246;28;20047;-79
2020/12/14 05:28:40;;;;;;;19.95;12.60;;;6.90;83.20;;;;;;5091024;28;20058;-80
2020/12/14 05:32:03;;;;;;;26.17;14.10;;;6.80;84.10;;;;;;5089838;28;20193;-79
2020/12/14 05:35:11;;;;;;;18.60;12.90;;;6.80;85.00;;;;;;5091033;28;20079;-79
2020/12/14 05:38:18;;;;;;;20.17;12.68;;;6.80;84.40;;;;;;5091032;28;20043;-80
2020/12/14 05:41:22;;;;;;;21.02;11.75;;;6.90;84.30;;;;;;5091101;28;20047;-79
2020/12/14 05:44:27;;;;;;;20.15;11.80;;;7.00;82.70;;;;;;5090918;28;20042;-80
2020/12/14 05:47:31;;;;;;;23.63;15.00;;;6.80;82.50;;;;;;5090997;28;20051;-80
2020/12/14 05:50:35;;;;;;;24.23;13.60;;;6.70;83.90;;;;;;5090405;28;20059;-79
2020/12/14 05:53:41;;;;;;;25.08;15.27;;;6.70;84.60;;;;;;5090854;28;20051;-79
2020/12/14 05:56:48;;;;;;;22.40;13.82;;;6.80;85.10;;;;;;5090421;28;20059;-79
2020/12/14 05:59:57;;;;;;;25.45;12.57;;;6.80;85.10;;;;;;5090784;28;20039;-80
2020/12/14 06:03:01;;;;;;;27.58;17.20;;;6.80;84.60;;;;;;5090800;28;20067;-80
2020/12/14 06:06:10;;;;;;;23.63;13.02;;;6.90;84.70;;;;;;5090769;28;20066;-79
2020/12/14 06:09:21;;;;;;;34.42;14.02;;;7.00;83.60;;;;;;5090471;28;20055;-79
2020/12/14 06:12:31;;;;;;;27.20;15.57;;;7.10;83.70;;;;;;5090488;28;20035;-80
2020/12/14 06:15:39;;;;;;;25.95;13.15;;;7.20;82.90;;;;;;5090467;28;20055;-80
2020/12/14 06:18:45;;;;;;;24.13;13.02;;;7.20;81.80;;;;;;5090761;28;20058;-79
2020/12/14 06:22:02;;;;;;;25.08;11.45;;;7.00;82.60;;;;;;5090518;28;20043;-80
2020/12/14 06:25:07;;;;;;;29.45;11.60;;;6.90;82.90;;;;;;5090672;28;20051;-80
2020/12/14 06:28:30;;;;;;;23.98;11.48;;;6.80;83.60;;;;;;5090156;28;20055;-79
2020/12/14 06:31:39;;;;;;;26.27;11.10;;;6.70;84.30;;;;;;5094141;28;20051;-79
2020/12/14 06:34:43;;;;;;;24.85;12.30;;;6.80;85.20;;;;;;5094030;28;20062;-80
2020/12/14 06:37:56;;;;;;;24.92;11.55;;;6.80;84.80;;;;;;5093946;28;20046;-79
2020/12/14 06:41:01;;;;;;;19.30;10.10;;;6.90;84.50;;;;;;5094497;28;20380;-80
2020/12/14 06:44:07;;;;;;;37.28;18.45;;;7.10;82.80;;;;;;5094008;28;20062;-86
2020/12/14 06:47:13;;;;;;;45.88;19.48;;;7.00;82.70;;;;;;5093486;28;20629;-78
2020/12/14 06:50:37;;;;;;;23.90;10.35;;;7.10;83.00;;;;;;5093111;28;20059;-76
2020/12/14 06:53:50;;;;;;;13.65;6.07;;;7.40;90.00;;;;;;5093218;28;20078;-79
2020/12/14 06:56:56;;;;;;;9.20;4.30;;;7.90;78.20;;;;;;5092539;28;20055;-81
2020/12/14 07:00:00;;;;;;;7.97;4.07;;;8.30;76.00;;;;;;5092837;28;20032;-79
2020/12/14 07:03:04;;;;;;;6.45;4.10;;;8.70;74.70;;;;;;5093341;28;20400;-76
2020/12/14 07:06:09;;;;;;;8.13;4.15;;;9.20;73.60;;;;;;5093575;28;20039;-76
2020/12/14 07:09:30;;;;;;;12.85;4.15;;;9.40;73.50;;;;;;5093422;28;20044;-87
2020/12/14 07:12:40;;;;;;;16.10;7.80;;;9.70;73.30;;;;;;5093432;28;20388;-77
2020/12/14 07:16:04;;;;;;;7.22;4.63;;;9.90;74.70;;;;;;5093745;28;20055;-85
2020/12/14 07:19:08;;;;;;;8.57;4.75;;;10.20;73.20;;;;;;5096841;28;20032;-86
2020/12/14 07:22:20;;;;;;;7.55;5.30;;;10.20;73.00;;;;;;5092175;28;20502;-75
2020/12/14 07:25:24;;;;;;;8.32;4.75;;;10.30;72.10;;;;;;5093008;28;20455;-77
2020/12/14 07:28:46;;;;;;;7.00;4.05;;;10.50;70.80;;;;;;5092512;28;20095;-75
2020/12/14 07:31:49;;;;;;;8.85;4.63;;;10.70;69.60;;;;;;5091360;28;20043;-72
2020/12/14 07:34:53;;;;;;;26.55;5.20;;;10.80;69.50;;;;;;5092881;28;20047;-73
2020/12/14 07:37:58;;;;;;;9.07;5.32;;;10.90;69.40;;;;;;5092927;28;20055;-84
2020/12/14 07:41:06;;;;;;;8.48;5.53;;;10.90;69.50;;;;;;5091744;28;20503;-75
2020/12/14 07:44:10;;;;;;;8.43;5.13;;;11.00;69.40;;;;;;5091267;28;20411;-73
2020/12/14 07:47:21;;;;;;;11.57;4.70;;;11.00;68.90;;;;;;5092498;28;20043;-82
2020/12/14 07:50:26;;;;;;;10.97;5.40;;;11.10;69.00;;;;;;5092540;28;20058;-78
2020/12/14 07:53:31;;;;;;;5.80;4.20;;;11.10;68.60;;;;;;5080447;28;20046;-74
2020/12/14 07:57:05;;;;;;;6.18;4.55;;;11.20;68.30;;;;;;5092120;28;20054;-75
2020/12/14 08:00:12;;;;;;;7.72;5.10;;;11.40;67.60;;;;;;5092243;28;20039;-75
2020/12/14 08:03:18;;;;;;;9.45;5.22;;;11.50;67.40;;;;;;5092387;28;20387;-82
2020/12/14 08:06:21;;;;;;;8.70;5.05;;;11.50;67.80;;;;;;5092499;28;20118;-80
2020/12/14 08:09:31;;;;;;;7.40;5.22;;;11.50;67.20;;;;;;5092224;28;20039;-78
2020/12/14 08:12:41;;;;;;;8.90;5.53;;;11.60;67.00;;;;;;5092408;28;20070;-82
2020/12/14 08:15:45;;;;;;;13.43;4.78;;;11.60;66.60;;;;;;5092070;28;20051;-82
2020/12/14 08:18:55;;;;;;;8.05;5.47;;;11.80;66.10;;;;;;5091760;28;20059;-76
2020/12/14 08:22:00;;;;;;;8.25;5.82;;;11.80;66.30;;;;;;5091572;28;20059;-73
2020/12/14 08:25:04;;;;;;;12.75;7.47;;;11.90;67.60;;;;;;5090691;28;20043;-72
2020/12/14 08:28:08;;;;;;;11.15;6.47;;;12.00;68.60;;;;;;5091643;28;20059;-75
2020/12/14 08:31:12;;;;;;;12.35;7.35;;;12.20;69.30;;;;;;5091095;28;20067;-72
2020/12/14 08:34:27;;;;;;;16.55;7.97;;;12.30;69.60;;;;;;5091823;28;20047;-76
2020/12/14 08:37:32;;;;;;;12.15;7.40;;;12.50;67.10;;;;;;5090676;28;20051;-77
2020/12/14 08:40:37;;;;;;;12.23;7.78;;;12.70;66.10;;;;;;5091381;28;20043;-73
2020/12/14 08:43:41;;;;;;;14.30;8.25;;;12.80;66.10;;;;;;5091791;28;20043;-78
2020/12/14 08:46:45;;;;;;;15.18;7.90;;;13.00;66.10;;;;;;5090781;28;20499;-72
2020/12/14 08:49:49;;;;;;;15.50;8.13;;;13.20;66.20;;;;;;5089563;28;20217;-74
2020/12/14 08:53:01;;;;;;;22.67;9.35;;;13.40;65.70;;;;;;5091604;28;20043;-73
2020/12/14 08:56:14;;;;;;;13.60;7.95;;;13.60;65.20;;;;;;5091283;28;20078;-73
2020/12/14 08:59:25;;;;;;;14.60;8.57;;;13.70;64.50;;;;;;5091189;28;20169;-75
2020/12/14 09:02:29;;;;;;;18.20;8.95;;;13.90;64.10;;;;;;5091163;28;20054;-86
2020/12/14 09:05:36;;;;;;;18.17;7.88;;;14.00;64.00;;;;;;5090858;28;20047;-74
2020/12/14 09:08:40;;;;;;;15.85;8.27;;;14.10;62.70;;;;;;5091158;28;20063;-79
2020/12/14 09:11:44;;;;;;;14.10;6.22;;;14.20;63.20;;;;;;5091021;28;20043;-75
2020/12/14 09:14:51;;;;;;;15.45;6.63;;;14.30;61.00;;;;;;5091216;28;20043;-72
2020/12/14 09:18:06;;;;;;;12.10;6.68;;;14.50;60.90;;;;;;5090767;28;20067;-79
2020/12/14 09:21:10;;;;;;;13.50;6.68;;;14.60;59.00;;;;;;5091098;28;20059;-81
2020/12/14 09:24:29;;;;;;;14.52;5.75;;;14.70;58.80;;;;;;5090419;28;20047;-75
2020/12/14 09:27:34;;;;;;;11.07;5.50;;;14.90;58.20;;;;;;5091018;28;20047;-80
2020/12/14 09:30:38;;;;;;;12.43;5.50;;;15.00;57.00;;;;;;5090114;28;20517;-77
2020/12/14 09:33:41;;;;;;;9.25;5.40;;;15.20;56.60;;;;;;5090162;28;20043;-76
2020/12/14 09:36:49;;;;;;;12.95;6.55;;;15.30;56.60;;;;;;5090661;28;20051;-72
2020/12/14 09:39:57;;;;;;;17.55;8.05;;;15.50;57.30;;;;;;5089926;28;20051;-77
2020/12/14 09:43:02;;;;;;;14.35;7.50;;;15.60;57.10;;;;;;5090415;28;20059;-73
2020/12/14 09:46:06;;;;;;;16.02;7.18;;;15.80;56.60;;;;;;5091002;28;20051;-79
2020/12/14 09:49:12;;;;;;;18.40;7.88;;;16.00;57.30;;;;;;5090743;28;20411;-82
2020/12/14 09:52:16;;;;;;;15.65;8.60;;;16.10;57.10;;;;;;5090707;28;20039;-83
2020/12/14 09:55:20;;;;;;;18.77;8.18;;;16.20;57.70;;;;;;5090908;28;20043;-77
2020/12/14 09:58:25;;;;;;;16.55;8.27;;;16.40;55.90;;;;;;5090473;28;20051;-71
2020/12/14 10:01:29;;;;;;;13.63;8.13;;;16.30;56.70;;;;;;5090728;28;20059;-73
2020/12/14 10:04:33;;;;;;;12.55;8.75;;;16.40;57.70;;;;;;5092350;28;20055;-78
2020/12/14 10:07:41;;;;;;;23.67;8.98;;;16.50;57.20;;;;;;5094599;28;20055;-72
2020/12/14 10:10:46;;;;;;;17.73;7.85;;;16.70;57.20;;;;;;5093868;28;20047;-71
2020/12/14 10:13:50;;;;;;;28.38;17.27;;;16.80;56.60;;;;;;5093999;28;20043;-72
2020/12/14 10:16:54;;;;;;;17.27;8.50;;;16.90;57.00;;;;;;5094070;28;20070;-73
2020/12/14 10:19:58;;;;;;;14.43;8.63;;;17.00;57.30;;;;;;5093769;28;20039;-75
2020/12/14 10:23:04;;;;;;;18.73;9.20;;;17.00;56.40;;;;;;5093996;28;20503;-71
2020/12/14 10:26:09;;;;;;;14.95;8.98;;;17.10;56.60;;;;;;5094212;28;20047;-81
2020/12/14 10:29:17;;;;;;;15.15;8.10;;;17.10;55.80;;;;;;5094799;28;20502;-82
2020/12/14 10:32:21;;;;;;;16.02;7.70;;;17.20;57.60;;;;;;5093834;28;20054;-79
2020/12/14 10:35:25;;;;;;;12.07;6.55;;;17.30;55.40;;;;;;5093929;28;20046;-72
2020/12/14 10:38:29;;;;;;;9.98;6.20;;;17.30;55.90;;;;;;5094131;28;20515;-73
2020/12/14 10:41:33;;;;;;;9.60;6.35;;;17.30;54.20;;;;;;5093935;28;20047;-73
2020/12/14 10:44:37;;;;;;;13.40;8.35;;;17.40;53.80;;;;;;5094262;28;20073;-75
2020/12/14 10:47:41;;;;;;;16.10;8.88;;;17.30;51.30;;;;;;5093423;28;20170;-75
2020/12/14 10:50:45;;;;;;;13.95;5.72;;;17.30;52.50;;;;;;5092444;28;20054;-74
2020/12/14 10:53:51;;;;;;;12.77;6.40;;;17.30;51.60;;;;;;5093084;28;20059;-72
2020/12/14 10:56:56;;;;;;;14.52;6.13;;;17.30;53.30;;;;;;5094912;28;20051;-74
2020/12/14 11:00:06;;;;;;;8.88;4.82;;;17.30;53.10;;;;;;5095089;28;20039;-78
2020/12/14 11:03:11;;;;;;;12.43;4.78;;;17.30;52.50;;;;;;5093670;28;20047;-74
2020/12/14 11:06:15;;;;;;;8.00;5.50;;;17.30;53.00;;;;;;5093221;28;20055;-79
2020/12/14 11:09:19;;;;;;;10.57;4.97;;;17.30;52.70;;;;;;5093476;28;20047;-83
2020/12/14 11:12:23;;;;;;;8.20;4.55;;;17.00;48.80;;;;;;5093557;28;20486;-77
2020/12/14 11:15:27;;;;;;;9.40;4.60;;;16.80;50.50;;;;;;5092100;28;20514;-69
2020/12/14 11:18:51;;;;;;;7.43;4.60;;;16.60;50.00;;;;;;5092300;28;20051;-70
2020/12/14 11:22:15;;;;;;;14.65;9.05;;;16.30;50.40;;;;;;5090576;28;20047;-67
2020/12/14 11:25:25;;;;;;;9.00;4.43;;;16.20;51.40;;;;;;5092797;28;20039;-76
2020/12/14 11:28:29;;;;;;;9.25;4.70;;;16.20;50.20;;;;;;5092555;28;20059;-75
2020/12/14 11:31:35;;;;;;;13.50;4.93;;;16.10;50.70;;;;;;5092586;28;20042;-70
2020/12/14 11:34:40;;;;;;;8.98;5.07;;;16.10;52.00;;;;;;5091772;28;20047;-68
2020/12/14 11:52:02;;;;;;;13.05;5.47;;;16.20;53.20;;;;;;5149268;27;20731;-73
2020/12/14 11:55:07;;;;;;;7.43;4.75;;;16.30;61.70;;;;;;5149703;27;20030;-70
2020/12/14 11:58:10;;;;;;;10.15;4.00;;;16.20;55.30;;;;;;5149822;27;20047;-69
2020/12/14 12:01:21;;;;;;;12.52;5.10;;;16.20;53.80;;;;;;5147430;27;20068;-72
2020/12/14 12:04:25;;;;;;;10.63;6.55;;;16.20;54.90;;;;;;5147538;27;20120;-71
2020/12/14 12:07:30;;;;;;;11.35;5.80;;;16.10;54.20;;;;;;5148517;27;20038;-68
2020/12/14 12:10:37;;;;;;;9.00;4.68;;;16.10;53.90;;;;;;5148729;27;20573;-68
2020/12/14 12:13:41;;;;;;;7.07;4.55;;;16.10;53.80;;;;;;5149266;27;20031;-69
2020/12/14 12:16:50;;;;;;;20.73;5.95;;;16.00;53.50;;;;;;5148890;27;20035;-69
2020/12/14 12:19:54;;;;;;;6.43;4.13;;;16.00;51.80;;;;;;5149075;27;20062;-69
2020/12/14 12:22:58;;;;;;;12.77;5.68;;;15.90;51.80;;;;;;5149302;27;20548;-69
2020/12/14 12:26:03;;;;;;;32.38;21.65;;;15.90;51.20;;;;;;5149120;27;20308;-73
2020/12/14 12:29:07;;;;;;;34.83;19.95;;;15.90;55.60;;;;;;5148438;27;20049;-70
2020/12/14 12:32:11;;;;;;;15.95;8.32;;;16.00;61.10;;;;;;5149358;27;20374;-68
2020/12/14 12:35:16;;;;;;;11.55;4.88;;;16.00;59.20;;;;;;5148161;27;20033;-68
2020/12/14 12:38:20;;;;;;;13.98;4.72;;;15.90;53.80;;;;;;5149096;27;20034;-68
2020/12/14 12:41:24;;;;;;;7.53;3.80;;;15.90;54.00;;;;;;5148883;27;20050;-70
2020/12/14 12:44:29;;;;;;;75.95;40.17;;;15.90;51.70;;;;;;5148735;27;20031;-69
2020/12/14 12:47:33;;;;;;;13.23;7.00;;;15.80;55.40;;;;;;5148943;27;20042;-69
2020/12/14 12:50:52;;;;;;;7.68;4.53;;;15.80;51.20;;;;;;5148320;27;20062;-68
2020/12/14 12:53:56;;;;;;;36.40;20.58;;;15.70;50.70;;;;;;5134882;27;20039;-68
2020/12/14 12:57:04;;;;;;;7.25;4.75;;;15.70;54.40;;;;;;5135098;27;20048;-69
2020/12/14 13:00:09;;;;;;;7.00;3.55;;;15.60;51.10;;;;;;5134008;27;20387;-68
2020/12/14 13:03:12;;;;;;;11.60;4.22;;;15.60;51.20;;;;;;5135048;27;20039;-68
2020/12/14 13:06:17;;;;;;;6.22;3.67;;;15.60;51.60;;;;;;5134606;27;20042;-68
2020/12/14 13:09:21;;;;;;;8.80;5.22;;;15.50;52.10;;;;;;5133834;27;20039;-68
2020/12/14 13:12:27;;;;;;;10.77;5.65;;;15.50;52.70;;;;;;5134337;27;20043;-68
2020/12/14 13:15:31;;;;;;;6.60;4.78;;;15.50;52.90;;;;;;5134403;27;20034;-68
2020/12/14 13:18:35;;;;;;;8.10;4.93;;;15.50;53.40;;;;;;5134613;27;20047;-68
2020/12/14 13:21:42;;;;;;;10.80;4.28;;;15.40;53.80;;;;;;5134362;27;20047;-71
2020/12/14 13:24:45;;;;;;;13.77;5.32;;;15.40;53.60;;;;;;5134546;27;20496;-73
2020/12/14 13:27:49;;;;;;;6.90;4.70;;;15.40;54.50;;;;;;5134274;27;20058;-70
2020/12/14 13:30:53;;;;;;;8.38;4.43;;;15.40;53.70;;;;;;5134133;27;20035;-72
2020/12/14 13:33:58;;;;;;;6.50;4.15;;;15.30;53.70;;;;;;5134048;27;20039;-69
2020/12/14 13:37:02;;;;;;;9.65;3.92;;;15.30;54.50;;;;;;5134129;27;20031;-72
2020/12/14 13:40:09;;;;;;;11.23;5.20;;;15.30;54.90;;;;;;5134162;27;20043;-73
2020/12/14 13:43:12;;;;;;;7.20;4.70;;;15.30;54.80;;;;;;5134049;27;20046;-71
2020/12/14 13:46:17;;;;;;;9.55;5.72;;;15.20;55.10;;;;;;5133874;27;20359;-70
2020/12/14 13:49:21;;;;;;;7.75;5.07;;;15.20;54.80;;;;;;5133870;27;20039;-69
2020/12/14 13:52:25;;;;;;;9.32;6.20;;;15.20;55.40;;;;;;5093057;28;20501;-76
2020/12/14 13:55:31;;;;;;;9.98;5.15;;;15.10;55.70;;;;;;5092776;28;20036;-71
2020/12/14 13:58:36;;;;;;;9.05;5.50;;;15.10;56.80;;;;;;5092993;28;20391;-74
2020/12/14 14:01:40;;;;;;;8.15;5.93;;;15.10;56.30;;;;;;5091740;28;20507;-74
2020/12/14 14:04:45;;;;;;;14.32;6.45;;;15.10;56.50;;;;;;5091613;28;20032;-76
2020/12/14 14:07:49;;;;;;;12.23;6.38;;;15.10;57.20;;;;;;5092659;28;20042;-74
2020/12/14 14:10:53;;;;;;;10.23;5.63;;;15.00;57.60;;;;;;5092298;28;20043;-74
2020/12/14 14:13:57;;;;;;;13.32;6.82;;;15.00;58.30;;;;;;5092450;28;20050;-75
2020/12/14 14:17:01;;;;;;;9.60;6.03;;;15.00;58.20;;;;;;5091570;28;20036;-78
2020/12/14 14:20:07;;;;;;;12.98;6.80;;;15.00;58.20;;;;;;5092461;28;20048;-74
2020/12/14 14:23:11;;;;;;;16.70;8.18;;;14.90;58.60;;;;;;5092392;28;20498;-74
2020/12/14 14:26:15;;;;;;;15.43;7.28;;;14.90;59.40;;;;;;5091695;28;20046;-76
2020/12/14 14:29:23;;;;;;;9.50;6.32;;;14.90;59.80;;;;;;5092373;28;20203;-72
2020/12/14 14:32:27;;;;;;;11.63;6.43;;;14.90;59.60;;;;;;5092244;28;20424;-72
2020/12/14 14:35:32;;;;;;;15.05;6.93;;;14.80;59.90;;;;;;5091262;28;20043;-71
2020/12/14 14:38:36;;;;;;;11.68;6.53;;;14.80;60.00;;;;;;5091169;28;20075;-73
2020/12/14 14:41:47;;;;;;;22.00;7.63;;;14.80;60.50;;;;;;5090911;28;20051;-72
2020/12/14 14:44:51;;;;;;;11.07;5.95;;;14.70;60.50;;;;;;5091707;28;20043;-74
2020/12/14 14:47:55;;;;;;;9.45;6.40;;;14.70;61.00;;;;;;5091303;28;20043;-73
2020/12/14 14:50:59;;;;;;;13.05;6.93;;;14.70;60.70;;;;;;5110849;27;20043;-72
2020/12/14 14:54:03;;;;;;;17.15;7.90;;;14.60;61.10;;;;;;5133011;27;20053;-75
2020/12/14 14:57:06;;;;;;;15.95;8.05;;;14.60;61.40;;;;;;5132761;27;20046;-75
2020/12/14 15:00:10;;;;;;;33.42;11.23;;;14.60;61.70;;;;;;5131787;27;20500;-75
2020/12/14 15:03:14;;;;;;;23.25;9.63;;;14.60;60.70;;;;;;5132407;27;20058;-71
2020/12/14 15:06:28;;;;;;;15.48;8.23;;;14.50;61.20;;;;;;5131406;27;20042;-76
2020/12/14 15:09:32;;;;;;;20.23;9.25;;;14.50;61.90;;;;;;5131963;27;20039;-75
2020/12/14 15:12:41;;;;;;;15.85;8.70;;;14.40;62.20;;;;;;5132297;27;20050;-75
2020/12/14 15:15:45;;;;;;;22.55;9.98;;;14.40;61.80;;;;;;5132388;27;20042;-72
2020/12/14 15:18:49;;;;;;;18.10;10.00;;;14.40;62.20;;;;;;5132108;27;20061;-72
2020/12/14 15:21:53;;;;;;;22.08;10.07;;;14.30;61.90;;;;;;5131722;27;20054;-72
2020/12/14 15:24:59;;;;;;;28.98;11.48;;;14.30;62.50;;;;;;5131777;27;20034;-72
2020/12/14 15:28:04;;;;;;;20.65;10.98;;;14.30;63.30;;;;;;5131441;27;20058;-79
2020/12/14 15:31:09;;;;;;;22.90;9.70;;;14.20;64.10;;;;;;5131399;27;20058;-81
2020/12/14 15:34:13;;;;;;;23.80;10.93;;;14.20;64.10;;;;;;5131250;27;20046;-77
2020/12/14 15:37:17;;;;;;;25.17;10.00;;;14.10;65.00;;;;;;5130726;27;20041;-74
2020/12/14 15:40:21;;;;;;;36.83;12.20;;;14.00;65.60;;;;;;5132534;28;20070;-73
2020/12/14 15:43:25;;;;;;;33.97;12.77;;;14.00;66.30;;;;;;5131945;28;20390;-75
2020/12/14 15:46:29;;;;;;;34.53;12.90;;;13.90;66.60;;;;;;5130918;28;20038;-74
2020/12/14 15:49:36;;;;;;;29.15;14.95;;;13.80;66.90;;;;;;5132547;28;20038;-76
2020/12/14 15:52:47;;;;;;;55.10;23.67;;;13.80;67.30;;;;;;5131824;28;20070;-77
2020/12/14 15:55:51;;;;;;;52.63;21.85;;;13.80;67.40;;;;;;5132240;28;20047;-74
2020/12/14 15:58:55;;;;;;;43.97;17.98;;;13.70;67.50;;;;;;5131654;28;20038;-76
2020/12/14 16:01:59;;;;;;;30.02;16.42;;;13.70;67.00;;;;;;5130472;28;20054;-78
2020/12/14 16:05:04;;;;;;;25.08;13.57;;;13.60;66.20;;;;;;5131826;28;20112;-75
2020/12/14 16:08:08;;;;;;;27.50;12.18;;;13.60;66.40;;;;;;5130513;28;20038;-73
2020/12/14 16:11:11;;;;;;;29.83;13.35;;;13.50;66.00;;;;;;5131421;28;20501;-76